Time;durP1;ratioP1;P1;durP2;ratioP2;P2;SDS_P1;SDS_P2;PMS_P1;PMS_P2;Temp;Humidity;BMP_temperature;BMP_pressure;BME280_temperature;BME280_humidity;BME280_pressure;Samples;Min_cycle;Max_cycle;Signal;HPM_P1;HPM_P2
2021/05/09 00:01:26;;;;;;;5.07;2.83;;;9.90;99.90;;;;;;5045328;28;20045;-82
2021/05/09 00:03:53;;;;;;;5.22;2.90;;;10.00;99.90;;;;;;5045386;28;20032;-78
2021/05/09 00:06:19;;;;;;;5.40;3.15;;;10.00;99.90;;;;;;5044634;28;20033;-79
2021/05/09 00:08:44;;;;;;;4.82;2.40;;;10.00;99.90;;;;;;5045488;28;20022;-80
2021/05/09 00:11:10;;;;;;;6.15;2.38;;;10.00;99.90;;;;;;5046406;28;20053;-81
2021/05/09 00:13:36;;;;;;;3.28;2.10;;;10.00;99.90;;;;;;5046436;28;20045;-77
2021/05/09 00:16:02;;;;;;;5.30;2.72;;;10.00;99.90;;;;;;5046337;28;20025;-79
2021/05/09 00:18:28;;;;;;;4.60;2.30;;;10.00;99.90;;;;;;5045920;28;20485;-80
2021/05/09 00:20:55;;;;;;;4.10;2.15;;;10.10;99.90;;;;;;5045849;28;20041;-81
2021/05/09 00:23:21;;;;;;;3.30;2.17;;;10.00;99.90;;;;;;5046341;28;20039;-80
2021/05/09 00:25:47;;;;;;;6.18;2.38;;;10.10;99.90;;;;;;5044388;28;20053;-79
2021/05/09 00:28:12;;;;;;;9.10;2.50;;;10.10;99.90;;;;;;5046170;28;20048;-78
2021/05/09 00:30:38;;;;;;;3.88;2.50;;;10.10;99.90;;;;;;5044767;28;20029;-79
2021/05/09 00:33:04;;;;;;;2.70;2.10;;;10.10;99.90;;;;;;5045520;28;20029;-81
2021/05/09 00:35:29;;;;;;;3.78;2.30;;;10.10;99.90;;;;;;5045798;28;20036;-80
2021/05/09 00:37:55;;;;;;;4.07;2.40;;;10.00;99.90;;;;;;5044356;28;20030;-78
2021/05/09 00:40:21;;;;;;;4.50;2.63;;;10.10;99.90;;;;;;5043962;28;20044;-80
2021/05/09 00:42:47;;;;;;;5.78;2.33;;;10.20;99.90;;;;;;5044342;28;20068;-81
2021/05/09 00:45:13;;;;;;;7.50;2.33;;;10.20;99.90;;;;;;5045710;28;20585;-80
2021/05/09 00:47:39;;;;;;;5.05;2.53;;;10.20;99.90;;;;;;5044631;28;20034;-79
2021/05/09 00:50:06;;;;;;;4.47;2.67;;;10.20;99.90;;;;;;5045524;28;20033;-80
2021/05/09 00:52:37;;;;;;;3.83;2.47;;;10.20;99.90;;;;;;5045321;28;20160;-81
2021/05/09 00:55:05;;;;;;;3.92;2.20;;;10.20;99.90;;;;;;5043807;28;20029;-78
2021/05/09 00:57:34;;;;;;;5.78;2.28;;;10.20;99.90;;;;;;5043993;28;20033;-80
2021/05/09 01:00:02;;;;;;;2.85;2.10;;;10.20;99.90;;;;;;5043787;28;20061;-79
2021/05/09 01:02:29;;;;;;;3.83;2.38;;;10.30;99.90;;;;;;5043010;28;20056;-80
2021/05/09 01:04:56;;;;;;;3.47;2.13;;;10.30;99.90;;;;;;5045417;28;20081;-81
2021/05/09 01:07:22;;;;;;;6.97;3.00;;;10.30;99.90;;;;;;5043665;28;20018;-80
2021/05/09 01:09:48;;;;;;;3.72;1.98;;;10.30;99.90;;;;;;5044897;28;20030;-77
2021/05/09 01:12:14;;;;;;;4.10;1.80;;;10.30;99.90;;;;;;5045269;28;20044;-78
2021/05/09 01:14:41;;;;;;;2.60;1.80;;;10.30;99.90;;;;;;5043520;28;20052;-77
2021/05/09 01:17:06;;;;;;;4.50;2.20;;;10.30;99.90;;;;;;5043968;28;20536;-78
2021/05/09 01:19:36;;;;;;;3.55;2.10;;;10.40;99.90;;;;;;5043784;28;20056;-78
2021/05/09 01:22:03;;;;;;;5.35;2.45;;;10.40;99.90;;;;;;5044544;28;20028;-80
2021/05/09 01:24:29;;;;;;;2.78;2.00;;;10.40;99.90;;;;;;5043567;28;20033;-80
2021/05/09 01:26:55;;;;;;;2.58;2.03;;;10.40;99.90;;;;;;5043676;28;20048;-78
2021/05/09 01:29:20;;;;;;;5.50;2.25;;;10.50;99.90;;;;;;5043160;28;20044;-79
2021/05/09 01:31:48;;;;;;;2.53;1.63;;;10.50;99.90;;;;;;5044671;28;20045;-79
2021/05/09 01:34:14;;;;;;;2.85;1.92;;;10.50;99.90;;;;;;5045188;28;20110;-79
2021/05/09 01:36:40;;;;;;;4.13;2.40;;;10.50;99.90;;;;;;5044634;28;20027;-77
2021/05/09 01:39:06;;;;;;;6.78;3.15;;;10.50;99.90;;;;;;5043525;28;20053;-78
2021/05/09 01:41:32;;;;;;;5.07;2.40;;;10.50;99.90;;;;;;5043171;28;20045;-78
2021/05/09 01:43:58;;;;;;;3.33;1.60;;;10.50;99.90;;;;;;5043097;28;20030;-78
2021/05/09 01:46:24;;;;;;;3.25;2.03;;;10.50;99.90;;;;;;5043424;28;20565;-77
2021/05/09 01:48:49;;;;;;;4.05;2.13;;;10.50;99.90;;;;;;5044442;28;20037;-81
2021/05/09 01:51:15;;;;;;;4.65;2.05;;;10.50;99.90;;;;;;5044645;28;20025;-79
2021/05/09 01:53:41;;;;;;;5.82;2.00;;;10.50;99.90;;;;;;5043699;28;20026;-79
2021/05/09 01:56:06;;;;;;;3.42;2.13;;;10.60;99.90;;;;;;5043034;28;20060;-76
2021/05/09 01:58:32;;;;;;;3.92;2.35;;;10.60;99.90;;;;;;5045122;28;20025;-79
2021/05/09 02:00:58;;;;;;;5.25;2.33;;;10.60;99.90;;;;;;5048397;28;20033;-78
2021/05/09 02:03:23;;;;;;;3.40;1.90;;;10.60;99.90;;;;;;5047093;28;20022;-77
2021/05/09 02:05:49;;;;;;;6.75;2.05;;;10.60;99.90;;;;;;5047370;28;20097;-80
2021/05/09 02:08:14;;;;;;;4.15;2.40;;;10.60;99.90;;;;;;5047646;28;20128;-78
2021/05/09 02:10:40;;;;;;;4.15;2.35;;;10.60;99.90;;;;;;5047076;28;20121;-79
2021/05/09 02:13:06;;;;;;;4.00;2.22;;;10.60;99.90;;;;;;5047184;28;20435;-80
2021/05/09 02:15:31;;;;;;;6.07;2.45;;;10.70;99.90;;;;;;5047117;28;20025;-75
2021/05/09 02:17:57;;;;;;;3.58;1.92;;;10.70;99.90;;;;;;5046500;28;20056;-77
2021/05/09 02:20:23;;;;;;;3.50;2.33;;;10.60;99.90;;;;;;5046759;28;20124;-79
2021/05/09 02:22:49;;;;;;;4.10;2.47;;;10.70;99.90;;;;;;5046886;28;20036;-78
2021/05/09 02:25:15;;;;;;;3.75;1.88;;;10.70;99.90;;;;;;5046748;28;20029;-78
2021/05/09 02:27:41;;;;;;;4.00;1.63;;;10.80;99.90;;;;;;5047100;28;20503;-76
2021/05/09 02:30:07;;;;;;;3.08;1.70;;;10.80;99.90;;;;;;5048025;28;20100;-77
2021/05/09 02:32:33;;;;;;;2.90;1.65;;;10.80;99.90;;;;;;5046179;28;20791;-77
2021/05/09 02:34:59;;;;;;;4.93;1.75;;;10.80;99.90;;;;;;5046367;28;20052;-77
2021/05/09 02:37:24;;;;;;;2.53;1.65;;;10.80;99.90;;;;;;5047562;28;20048;-77
2021/05/09 02:39:50;;;;;;;5.43;2.38;;;10.80;99.90;;;;;;5046252;28;20037;-75
2021/05/09 02:42:16;;;;;;;4.47;1.67;;;10.80;99.90;;;;;;5047538;28;20046;-78
2021/05/09 02:44:42;;;;;;;5.18;2.08;;;10.80;99.90;;;;;;5046337;28;20056;-77
2021/05/09 02:47:08;;;;;;;2.97;1.90;;;10.80;99.90;;;;;;5047704;28;20025;-77
2021/05/09 02:49:34;;;;;;;3.38;1.92;;;10.80;99.90;;;;;;5046313;28;20030;-77
2021/05/09 02:52:00;;;;;;;6.90;2.00;;;10.80;99.90;;;;;;5045791;28;20110;-75
2021/05/09 02:54:26;;;;;;;2.83;2.10;;;10.80;99.90;;;;;;5047277;28;20017;-77
2021/05/09 02:56:52;;;;;;;7.57;2.28;;;10.70;99.90;;;;;;5046021;28;20022;-77
2021/05/09 02:59:17;;;;;;;3.58;1.88;;;10.70;99.90;;;;;;5045630;28;20460;-78
2021/05/09 03:01:43;;;;;;;3.28;1.90;;;10.70;99.90;;;;;;5047738;28;20025;-75
2021/05/09 03:04:09;;;;;;;4.65;2.17;;;10.60;99.90;;;;;;5047600;28;20471;-75
2021/05/09 03:06:34;;;;;;;2.97;1.95;;;10.60;99.90;;;;;;5046810;28;20044;-74
2021/05/09 03:09:00;;;;;;;3.25;1.88;;;10.60;99.90;;;;;;5047353;28;20044;-77
2021/05/09 03:11:28;;;;;;;4.20;2.22;;;10.60;99.90;;;;;;5044835;28;20030;-77
2021/05/09 03:13:58;;;;;;;4.00;2.05;;;10.50;99.90;;;;;;5045729;28;20466;-77
2021/05/09 03:16:23;;;;;;;3.03;1.83;;;10.50;99.90;;;;;;5046029;28;20083;-76
2021/05/09 03:18:49;;;;;;;3.70;1.95;;;10.40;99.90;;;;;;5045686;28;20041;-77
2021/05/09 03:21:16;;;;;;;4.00;2.40;;;10.40;99.90;;;;;;5045393;28;20037;-78
2021/05/09 03:23:41;;;;;;;3.75;2.28;;;10.40;99.90;;;;;;5047080;28;20024;-78
2021/05/09 03:26:07;;;;;;;3.80;2.00;;;10.40;99.90;;;;;;5046912;28;20025;-79
2021/05/09 03:28:33;;;;;;;2.67;1.75;;;10.30;99.90;;;;;;5045164;28;20018;-77
2021/05/09 03:30:58;;;;;;;7.78;1.80;;;10.30;99.90;;;;;;5046932;28;20033;-77
2021/05/09 03:33:24;;;;;;;2.63;1.75;;;10.30;99.90;;;;;;5046550;28;20375;-76
2021/05/09 03:35:49;;;;;;;4.18;2.40;;;10.30;99.90;;;;;;5045277;28;20026;-77
2021/05/09 03:38:15;;;;;;;3.47;1.80;;;10.20;99.90;;;;;;5045613;28;20037;-77
2021/05/09 03:40:41;;;;;;;2.55;1.42;;;10.20;99.90;;;;;;5046577;28;20041;-75
2021/05/09 03:43:10;;;;;;;3.97;1.67;;;10.20;99.90;;;;;;5045117;28;20052;-78
2021/05/09 03:45:35;;;;;;;1.58;1.10;;;10.20;99.90;;;;;;5045443;28;20025;-78
2021/05/09 03:48:01;;;;;;;3.63;1.70;;;10.10;99.90;;;;;;5046163;28;20060;-76
2021/05/09 03:50:26;;;;;;;3.22;1.80;;;10.10;99.90;;;;;;5046459;28;20487;-77
2021/05/09 03:52:52;;;;;;;8.48;2.55;;;10.10;99.90;;;;;;5046552;28;20026;-76
2021/05/09 03:55:17;;;;;;;3.67;2.00;;;10.10;99.90;;;;;;5044806;28;20093;-78
2021/05/09 03:57:43;;;;;;;3.90;2.00;;;10.10;99.90;;;;;;5044751;28;20025;-77
2021/05/09 04:00:09;;;;;;;3.95;2.10;;;10.10;99.90;;;;;;5045184;28;20061;-77
2021/05/09 04:02:35;;;;;;;4.88;1.98;;;10.00;99.90;;;;;;5044792;28;20025;-77
2021/05/09 04:05:01;;;;;;;3.88;1.65;;;10.10;99.90;;;;;;5044738;28;20030;-78
2021/05/09 04:07:26;;;;;;;3.65;2.00;;;10.10;99.90;;;;;;5044996;28;20052;-77
2021/05/09 04:09:52;;;;;;;2.67;1.75;;;10.10;99.90;;;;;;5044444;28;20494;-78
2021/05/09 04:12:18;;;;;;;6.03;2.08;;;10.10;99.90;;;;;;5044720;28;20033;-76
2021/05/09 04:14:43;;;;;;;3.85;1.70;;;10.10;99.90;;;;;;5046025;28;20021;-76
2021/05/09 04:17:09;;;;;;;3.47;1.77;;;10.10;99.90;;;;;;5044744;28;20083;-77
2021/05/09 04:19:35;;;;;;;5.05;2.33;;;10.10;99.90;;;;;;5045894;28;20458;-76
2021/05/09 04:22:00;;;;;;;2.97;2.13;;;10.10;99.90;;;;;;5044432;28;20029;-77
2021/05/09 04:24:26;;;;;;;2.42;1.65;;;10.10;99.90;;;;;;5045459;28;20064;-77
2021/05/09 04:26:52;;;;;;;3.50;1.95;;;10.10;99.90;;;;;;5045580;28;20033;-77
2021/05/09 04:29:17;;;;;;;3.55;1.67;;;10.20;99.90;;;;;;5044545;28;20022;-78
2021/05/09 04:31:43;;;;;;;2.72;1.60;;;10.20;99.90;;;;;;5045655;28;20084;-79
2021/05/09 04:34:09;;;;;;;2.45;1.65;;;10.20;99.90;;;;;;5045765;28;20022;-78
2021/05/09 04:36:34;;;;;;;2.60;2.05;;;10.20;99.90;;;;;;5045586;28;20056;-79
2021/05/09 04:39:00;;;;;;;2.20;1.77;;;10.30;99.90;;;;;;5045311;28;20029;-75
2021/05/09 04:41:25;;;;;;;9.60;1.77;;;10.30;99.90;;;;;;5045250;28;20521;-77
2021/05/09 04:43:51;;;;;;;3.67;2.17;;;10.30;99.90;;;;;;5045633;28;20026;-76
2021/05/09 04:46:16;;;;;;;2.67;1.70;;;10.30;99.90;;;;;;5043654;28;20049;-78
2021/05/09 04:48:42;;;;;;;3.33;1.75;;;10.30;99.90;;;;;;5045512;28;20089;-78
2021/05/09 04:51:07;;;;;;;3.63;2.05;;;10.40;99.90;;;;;;5044265;28;20040;-78
2021/05/09 04:53:34;;;;;;;4.88;1.98;;;10.40;99.90;;;;;;5053671;28;20041;-76
2021/05/09 04:56:06;;;;;;;3.40;2.00;;;10.40;99.90;;;;;;5048745;28;20033;-74
2021/05/09 04:58:34;;;;;;;2.60;1.80;;;10.50;99.90;;;;;;5045103;28;20021;-75
2021/05/09 05:01:01;;;;;;;3.30;1.73;;;10.60;99.90;;;;;;5063069;28;20044;-74
2021/05/09 05:03:28;;;;;;;4.70;2.00;;;10.60;99.90;;;;;;5061250;28;20036;-74
2021/05/09 05:05:54;;;;;;;5.65;1.80;;;10.60;99.90;;;;;;5060225;28;20022;-74
2021/05/09 05:08:20;;;;;;;3.45;1.85;;;10.70;99.90;;;;;;5061324;28;20175;-76
2021/05/09 05:10:46;;;;;;;4.25;2.22;;;10.80;99.90;;;;;;5064941;28;20029;-76
2021/05/09 05:13:18;;;;;;;2.85;2.03;;;10.80;99.90;;;;;;5065059;28;20080;-74
2021/05/09 05:15:46;;;;;;;4.07;1.92;;;10.90;99.90;;;;;;5064596;28;20029;-74
2021/05/09 05:18:12;;;;;;;4.32;2.13;;;11.00;99.90;;;;;;5063493;28;20044;-74
2021/05/09 05:20:38;;;;;;;2.67;1.60;;;11.00;99.90;;;;;;5064614;28;20045;-72
2021/05/09 05:23:03;;;;;;;3.05;2.05;;;11.10;99.90;;;;;;5064590;28;20036;-76
2021/05/09 05:25:29;;;;;;;2.90;1.63;;;11.20;99.90;;;;;;5063079;28;20437;-76
2021/05/09 05:27:54;;;;;;;2.45;1.58;;;11.30;99.90;;;;;;5064351;28;20025;-77
2021/05/09 05:30:21;;;;;;;2.72;1.58;;;11.30;99.90;;;;;;5062836;28;20036;-77
2021/05/09 05:32:49;;;;;;;2.25;1.58;;;11.40;99.90;;;;;;5062593;28;20025;-74
2021/05/09 05:35:16;;;;;;;3.95;1.90;;;11.50;99.90;;;;;;5061726;28;20118;-75
2021/05/09 05:37:42;;;;;;;4.90;1.83;;;11.50;99.90;;;;;;5055644;28;20060;-74
2021/05/09 05:40:08;;;;;;;3.67;2.00;;;11.60;99.90;;;;;;5059530;28;20041;-76
2021/05/09 05:42:33;;;;;;;2.35;1.60;;;11.70;99.90;;;;;;5042673;28;20045;-76
2021/05/09 05:44:59;;;;;;;2.97;1.60;;;11.70;99.90;;;;;;5042537;28;20056;-76
2021/05/09 05:47:24;;;;;;;3.97;1.88;;;11.70;99.90;;;;;;5044065;28;20417;-77
2021/05/09 05:49:54;;;;;;;2.58;2.00;;;11.90;99.90;;;;;;5044101;28;20080;-76
2021/05/09 05:52:20;;;;;;;3.17;1.90;;;11.90;99.90;;;;;;5044482;28;20025;-77
2021/05/09 05:54:45;;;;;;;2.65;1.48;;;12.00;99.90;;;;;;5043040;28;20029;-77
2021/05/09 05:57:11;;;;;;;10.25;1.75;;;12.10;99.90;;;;;;5042645;28;20060;-76
2021/05/09 05:59:37;;;;;;;2.75;1.65;;;12.30;99.90;;;;;;5059844;28;20477;-75
2021/05/09 06:02:02;;;;;;;3.80;1.60;;;12.30;99.90;;;;;;5054000;28;20417;-75
2021/05/09 06:04:28;;;;;;;2.95;1.50;;;12.40;99.90;;;;;;5039878;28;20025;-79
2021/05/09 06:06:53;;;;;;;3.17;1.40;;;12.60;99.90;;;;;;5041413;28;20120;-75
2021/05/09 06:09:19;;;;;;;1.48;0.98;;;12.70;99.90;;;;;;5043263;28;20528;-75
2021/05/09 06:11:46;;;;;;;3.60;1.27;;;12.80;99.90;;;;;;5042543;28;20033;-77
2021/05/09 06:14:11;;;;;;;1.52;1.00;;;12.90;99.90;;;;;;5044449;28;20093;-76
2021/05/09 06:16:37;;;;;;;2.83;1.35;;;13.00;99.90;;;;;;5044005;28;20034;-75
2021/05/09 06:19:03;;;;;;;2.88;1.50;;;13.20;99.90;;;;;;5043885;28;20041;-74
2021/05/09 06:21:29;;;;;;;5.85;1.50;;;13.30;99.90;;;;;;5042346;28;20050;-76
2021/05/09 06:23:54;;;;;;;2.45;1.15;;;13.40;99.90;;;;;;5042349;28;20076;-77
2021/05/09 06:26:20;;;;;;;3.17;1.63;;;13.50;99.90;;;;;;5057977;28;20093;-73
2021/05/09 06:28:46;;;;;;;3.75;1.48;;;13.60;99.90;;;;;;5052477;28;20036;-74
2021/05/09 06:31:11;;;;;;;5.88;1.70;;;13.80;99.90;;;;;;5043867;28;20085;-77
2021/05/09 06:33:37;;;;;;;2.47;1.58;;;13.80;99.90;;;;;;5044180;28;20052;-76
2021/05/09 06:36:03;;;;;;;1.23;1.00;;;14.00;99.90;;;;;;5043992;28;20025;-75
2021/05/09 06:38:28;;;;;;;6.30;1.20;;;14.00;99.90;;;;;;5058780;28;20029;-77
2021/05/09 06:40:54;;;;;;;1.48;1.15;;;14.10;99.90;;;;;;5058872;28;20037;-75
2021/05/09 06:43:21;;;;;;;2.30;1.50;;;14.20;99.90;;;;;;5042460;28;20025;-78
2021/05/09 06:45:48;;;;;;;0.82;0.70;;;14.40;99.90;;;;;;5044390;28;20029;-73
2021/05/09 06:48:14;;;;;;;4.03;1.42;;;14.40;99.90;;;;;;5047791;28;20022;-73
2021/05/09 06:50:40;;;;;;;2.70;1.52;;;14.50;99.90;;;;;;5047616;28;20030;-76
2021/05/09 06:53:07;;;;;;;2.13;1.13;;;14.60;99.90;;;;;;5047368;28;20029;-74
2021/05/09 06:55:34;;;;;;;1.73;1.08;;;14.60;99.90;;;;;;5047523;28;20432;-76
2021/05/09 06:58:02;;;;;;;5.53;1.80;;;14.80;99.90;;;;;;5047266;28;20083;-78
2021/05/09 07:00:28;;;;;;;2.33;1.50;;;14.90;99.90;;;;;;5047096;28;20069;-74
2021/05/09 07:02:54;;;;;;;1.63;1.00;;;14.90;99.90;;;;;;5045924;28;20056;-77
2021/05/09 07:05:19;;;;;;;4.03;1.52;;;15.10;99.90;;;;;;5045954;28;20035;-78
2021/05/09 07:07:46;;;;;;;1.65;1.13;;;15.20;99.90;;;;;;5047008;28;20029;-74
2021/05/09 07:10:12;;;;;;;1.58;1.10;;;15.30;99.90;;;;;;5047112;28;20466;-75
2021/05/09 07:12:38;;;;;;;3.00;1.63;;;15.40;99.90;;;;;;5052342;28;20541;-78
2021/05/09 07:15:04;;;;;;;2.28;1.25;;;15.50;99.90;;;;;;5062114;28;20029;-76
2021/05/09 07:17:30;;;;;;;5.13;1.58;;;15.60;99.90;;;;;;5045815;28;20046;-75
2021/05/09 07:19:56;;;;;;;1.77;1.20;;;15.70;99.90;;;;;;5046692;28;20065;-78
2021/05/09 07:22:28;;;;;;;2.80;1.15;;;15.80;99.90;;;;;;5045390;28;20025;-76
2021/05/09 07:24:54;;;;;;;1.63;1.10;;;15.90;99.90;;;;;;5046936;28;20462;-79
2021/05/09 07:27:19;;;;;;;1.52;1.30;;;16.00;99.90;;;;;;5045325;28;20041;-78
2021/05/09 07:29:45;;;;;;;7.75;1.60;;;16.20;99.90;;;;;;5046760;28;20097;-74
2021/05/09 07:32:11;;;;;;;8.02;1.55;;;16.30;99.90;;;;;;5045437;28;20026;-80
2021/05/09 07:34:37;;;;;;;2.30;0.95;;;16.40;99.90;;;;;;5045285;28;20029;-73
2021/05/09 07:37:02;;;;;;;3.05;1.30;;;16.60;99.90;;;;;;5045124;28;20534;-78
2021/05/09 07:39:28;;;;;;;2.40;1.25;;;16.70;99.90;;;;;;5045185;28;20033;-74
2021/05/09 07:41:54;;;;;;;1.67;1.08;;;16.70;99.90;;;;;;5047934;28;20060;-81
2021/05/09 07:44:20;;;;;;;2.28;1.30;;;16.80;99.90;;;;;;5057936;28;20029;-81
2021/05/09 07:46:45;;;;;;;1.85;1.40;;;17.00;99.90;;;;;;5044924;28;20021;-77
2021/05/09 07:49:11;;;;;;;3.50;1.25;;;17.00;99.90;;;;;;5055472;28;20090;-78
2021/05/09 07:51:37;;;;;;;1.17;1.05;;;17.20;99.90;;;;;;5063808;28;20032;-76
2021/05/09 07:54:02;;;;;;;1.65;1.08;;;17.30;99.90;;;;;;5064816;28;20029;-76
2021/05/09 07:56:28;;;;;;;2.20;1.27;;;17.40;99.90;;;;;;5065368;28;20384;-81
2021/05/09 07:58:54;;;;;;;3.90;1.00;;;17.50;99.90;;;;;;5065228;28;20083;-75
2021/05/09 08:01:19;;;;;;;1.05;0.65;;;17.60;99.90;;;;;;5065875;28;20040;-75
2021/05/09 08:03:45;;;;;;;2.65;1.05;;;17.60;99.90;;;;;;5058864;28;20044;-79
2021/05/09 08:06:11;;;;;;;1.35;0.65;;;17.80;99.90;;;;;;5049732;28;20024;-75
2021/05/09 08:08:38;;;;;;;2.67;1.23;;;17.90;99.90;;;;;;5066068;28;20385;-78
2021/05/09 08:11:04;;;;;;;2.63;0.70;;;18.00;99.90;;;;;;5062326;28;20114;-74
2021/05/09 08:13:29;;;;;;;1.17;0.65;;;18.10;99.90;;;;;;5058857;28;20501;-75
2021/05/09 08:15:55;;;;;;;5.68;1.33;;;18.30;99.90;;;;;;5044396;28;20055;-79
2021/05/09 08:18:25;;;;;;;1.25;0.73;;;18.40;99.90;;;;;;5044440;28;20117;-76
2021/05/09 08:20:51;;;;;;;2.00;1.15;;;18.50;99.90;;;;;;5061182;28;20037;-75
2021/05/09 08:23:17;;;;;;;1.85;1.10;;;18.70;99.90;;;;;;5045455;28;20057;-80
2021/05/09 08:25:42;;;;;;;3.95;1.40;;;18.70;99.90;;;;;;5061226;28;20030;-78
2021/05/09 08:28:08;;;;;;;4.78;1.23;;;18.90;99.90;;;;;;5045598;28;20029;-75
2021/05/09 08:30:34;;;;;;;6.30;1.52;;;18.90;99.90;;;;;;5043837;28;20056;-75
2021/05/09 08:32:59;;;;;;;1.90;1.00;;;19.10;99.90;;;;;;5060528;28;20573;-76
2021/05/09 08:35:45;;;;;;;3.58;1.10;;;19.20;99.90;;;;;;5043731;28;20056;-76
2021/05/09 08:38:20;;;;;;;4.68;1.38;;;19.40;99.90;;;;;;5042350;28;20028;-76
2021/05/09 08:40:46;;;;;;;2.55;1.38;;;19.50;99.90;;;;;;5042433;28;20098;-74
2021/05/09 08:43:12;;;;;;;1.63;0.90;;;19.60;99.90;;;;;;5059490;28;20494;-75
2021/05/09 08:45:39;;;;;;;1.55;1.08;;;19.90;99.90;;;;;;5042631;28;20017;-74
2021/05/09 08:48:06;;;;;;;1.63;1.20;;;20.00;99.90;;;;;;5044468;28;20100;-78
2021/05/09 08:50:31;;;;;;;3.50;0.93;;;20.20;99.90;;;;;;5044166;28;20028;-76
2021/05/09 08:52:57;;;;;;;5.43;1.08;;;20.30;99.90;;;;;;5043373;28;20029;-75
2021/05/09 08:55:27;;;;;;;1.15;1.05;;;20.30;99.90;;;;;;5044402;28;20029;-80
2021/05/09 08:57:58;;;;;;;1.52;1.13;;;20.20;99.90;;;;;;5044869;28;20025;-78
2021/05/09 09:00:25;;;;;;;1.48;1.10;;;20.30;99.90;;;;;;5044557;28;20041;-71
2021/05/09 09:02:51;;;;;;;1.85;0.90;;;20.50;99.90;;;;;;5060294;28;20079;-75
2021/05/09 09:05:17;;;;;;;4.68;1.05;;;20.60;99.90;;;;;;5045039;28;20055;-82
2021/05/09 09:07:48;;;;;;;1.80;0.90;;;20.80;99.90;;;;;;5060165;28;20060;-80
2021/05/09 09:10:36;;;;;;;1.33;1.05;;;20.90;99.90;;;;;;5043458;28;20033;-76
2021/05/09 09:13:03;;;;;;;1.70;1.00;;;21.10;99.90;;;;;;5044752;28;20037;-72
2021/05/09 09:15:52;;;;;;;1.85;0.98;;;21.20;99.90;;;;;;5060223;28;20084;-78
2021/05/09 09:18:44;;;;;;;1.58;1.13;;;21.30;99.90;;;;;;5057144;28;20075;-76
2021/05/09 09:21:29;;;;;;;3.92;1.30;;;21.50;99.90;;;;;;5060575;28;20044;-75
2021/05/09 09:23:56;;;;;;;0.95;0.60;;;21.50;99.90;;;;;;5051587;28;20144;-76
2021/05/09 09:26:48;;;;;;;2.45;1.35;;;21.50;99.90;;;;;;5042888;28;20014;-74
2021/05/09 09:29:22;;;;;;;1.35;0.98;;;21.60;99.90;;;;;;5048349;28;20044;-74
2021/05/09 09:31:52;;;;;;;1.17;0.93;;;21.70;99.90;;;;;;5056348;28;20037;-74
2021/05/09 09:34:18;;;;;;;4.03;1.10;;;21.70;99.90;;;;;;5044113;28;20037;-74
2021/05/09 09:36:45;;;;;;;2.67;1.48;;;21.70;99.90;;;;;;5060330;28;20026;-75
2021/05/09 09:39:14;;;;;;;2.85;0.70;;;21.80;99.90;;;;;;5047499;28;20395;-78
2021/05/09 09:41:45;;;;;;;4.68;1.30;;;21.90;99.90;;;;;;5055787;28;20057;-71
2021/05/09 09:44:13;;;;;;;3.95;1.40;;;22.00;99.90;;;;;;5055843;28;20029;-76
2021/05/09 09:46:41;;;;;;;1.88;0.95;;;22.10;99.90;;;;;;5042570;28;20622;-75
2021/05/09 09:49:22;;;;;;;2.22;1.10;;;22.20;99.90;;;;;;5059374;28;20022;-74
2021/05/09 09:51:54;;;;;;;3.30;0.90;;;22.30;99.90;;;;;;5043875;28;20037;-73
2021/05/09 09:54:48;;;;;;;2.50;1.00;;;22.30;99.90;;;;;;5045395;28;20033;-74
2021/05/09 09:57:20;;;;;;;1.20;0.90;;;22.20;99.90;;;;;;5054847;28;20038;-75
2021/05/09 10:00:05;;;;;;;0.70;0.57;;;22.30;99.90;;;;;;5054646;28;20048;-75
2021/05/09 10:02:32;;;;;;;3.45;1.10;;;22.40;99.90;;;;;;5042693;28;20033;-71
2021/05/09 10:04:58;;;;;;;2.70;1.13;;;22.60;99.90;;;;;;5043289;28;20049;-75
2021/05/09 10:07:26;;;;;;;2.20;0.88;;;22.70;99.90;;;;;;5059261;28;20049;-74
2021/05/09 10:09:54;;;;;;;1.85;1.00;;;22.90;99.90;;;;;;5043675;28;20034;-78
2021/05/09 10:12:20;;;;;;;1.70;0.95;;;23.00;99.90;;;;;;5048088;28;20131;-75
2021/05/09 10:14:45;;;;;;;1.27;0.82;;;23.10;99.90;;;;;;5048879;28;20037;-73
2021/05/09 10:17:13;;;;;;;1.90;1.10;;;23.20;99.90;;;;;;5056685;28;20116;-70
2021/05/09 10:19:38;;;;;;;2.20;0.80;;;23.40;99.90;;;;;;5060284;28;20037;-78
2021/05/09 10:22:27;;;;;;;1.40;0.88;;;23.70;99.90;;;;;;5047686;28;20071;-77
2021/05/09 10:24:53;;;;;;;3.80;0.65;;;24.00;99.90;;;;;;5053453;28;20037;-74
2021/05/09 10:27:18;;;;;;;0.68;0.50;;;24.10;99.90;;;;;;5062955;28;20493;-74
2021/05/09 10:29:45;;;;;;;1.52;0.88;;;24.20;99.90;;;;;;5051945;28;20081;-74
2021/05/09 10:32:21;;;;;;;1.55;0.70;;;24.40;99.90;;;;;;5067801;28;20104;-76
2021/05/09 10:34:56;;;;;;;2.50;0.88;;;24.50;99.90;;;;;;5066649;28;20033;-77
2021/05/09 10:37:45;;;;;;;1.23;0.93;;;24.50;99.90;;;;;;5067313;28;20025;-75
2021/05/09 10:40:21;;;;;;;1.63;1.02;;;24.70;99.90;;;;;;5053757;28;20029;-79
2021/05/09 10:43:09;;;;;;;2.15;1.08;;;24.70;99.90;;;;;;5045681;28;20049;-76
2021/05/09 10:45:34;;;;;;;0.73;0.57;;;25.00;99.90;;;;;;5033242;28;20045;-81
2021/05/09 10:48:20;;;;;;;1.70;0.73;;;25.20;99.90;;;;;;5045704;28;20385;-78
2021/05/09 10:51:11;;;;;;;2.03;0.75;;;25.50;99.90;;;;;;5047022;28;20068;-74
2021/05/09 10:53:37;;;;;;;0.73;0.43;;;25.60;99.90;;;;;;5047526;28;20101;-71
2021/05/09 10:56:10;;;;;;;0.68;0.45;;;25.60;99.90;;;;;;5045937;28;20501;-74
2021/05/09 10:58:50;;;;;;;1.48;0.70;;;25.60;99.90;;;;;;5045937;28;20029;-75
2021/05/09 11:01:24;;;;;;;0.93;0.68;;;25.70;99.90;;;;;;5047415;28;20026;-74
2021/05/09 11:03:52;;;;;;;0.50;0.43;;;25.60;98.70;;;;;;5046975;28;20029;-72
2021/05/09 11:06:27;;;;;;;1.33;0.73;;;25.70;99.90;;;;;;5047318;28;20033;-74
2021/05/09 11:08:56;;;;;;;0.80;0.70;;;25.60;99.90;;;;;;5046960;28;20112;-74
2021/05/09 11:11:25;;;;;;;0.40;0.40;;;25.70;99.90;;;;;;5046790;28;20104;-75
2021/05/09 11:16:30;;;;;;;1.17;0.80;;;26.00;99.90;;;;;;5046608;28;20053;-74
2021/05/09 11:19:03;;;;;;;1.55;0.80;;;26.20;99.90;;;;;;5045462;28;20083;-75
2021/05/09 11:21:31;;;;;;;2.00;0.82;;;26.30;99.90;;;;;;5044500;28;20049;-74
2021/05/09 11:24:02;;;;;;;1.10;0.80;;;26.20;99.80;;;;;;5046729;28;20025;-75
2021/05/09 11:26:53;;;;;;;5.38;0.73;;;26.10;99.90;;;;;;5046674;28;20017;-73
2021/05/09 11:29:23;;;;;;;2.08;0.88;;;26.20;97.30;;;;;;5037229;28;20057;-74
2021/05/09 11:31:57;;;;;;;1.60;0.60;;;26.30;99.90;;;;;;5045787;28;20072;-72
2021/05/09 11:34:24;;;;;;;0.80;0.50;;;26.60;98.70;;;;;;5046809;28;20048;-71
2021/05/09 11:36:52;;;;;;;0.77;0.40;;;26.80;99.00;;;;;;5045345;28;20029;-73
2021/05/09 11:39:35;;;;;;;3.25;0.90;;;27.00;98.40;;;;;;5046023;28;20037;-80
2021/05/09 11:42:09;;;;;;;1.95;0.80;;;27.10;99.90;;;;;;5046741;28;20057;-71
2021/05/09 11:44:43;;;;;;;1.70;0.80;;;27.20;98.00;;;;;;5047129;28;20036;-73
2021/05/09 11:47:20;;;;;;;0.95;0.57;;;27.40;99.90;;;;;;5045540;28;20516;-76
2021/05/09 11:49:47;;;;;;;0.40;0.40;;;27.50;96.00;;;;;;5045242;28;20065;-72
2021/05/09 11:52:19;;;;;;;2.08;0.63;;;27.70;99.90;;;;;;5044907;28;20045;-75
2021/05/09 11:54:50;;;;;;;0.50;0.47;;;28.00;97.80;;;;;;5046669;28;20034;-72
2021/05/09 11:57:18;;;;;;;0.57;0.57;;;28.10;95.50;;;;;;5046607;28;20128;-72
2021/05/09 11:59:46;;;;;;;1.98;0.95;;;28.00;97.90;;;;;;5045791;28;20512;-71
2021/05/09 12:02:12;;;;;;;1.13;0.60;;;28.10;96.90;;;;;;5046182;28;20028;-78
2021/05/09 12:04:39;;;;;;;1.02;0.57;;;28.10;99.10;;;;;;5045151;28;20061;-75
2021/05/09 12:07:07;;;;;;;0.93;0.60;;;28.20;95.40;;;;;;5044478;28;20029;-73
2021/05/09 12:09:33;;;;;;;1.67;0.60;;;28.30;95.60;;;;;;5046007;28;20101;-72
2021/05/09 12:11:59;;;;;;;0.57;0.47;;;28.30;96.30;;;;;;5044435;28;20025;-74
2021/05/09 12:14:26;;;;;;;4.90;0.82;;;28.30;97.10;;;;;;5045412;28;20021;-74
2021/05/09 12:16:53;;;;;;;1.05;0.63;;;28.20;98.80;;;;;;5064434;28;20111;-73
2021/05/09 12:19:27;;;;;;;0.95;0.60;;;28.00;95.70;;;;;;5066062;28;20025;-72
2021/05/09 12:21:55;;;;;;;0.75;0.75;;;27.80;96.70;;;;;;5060058;28;20036;-74
2021/05/09 12:24:21;;;;;;;0.68;0.50;;;27.70;99.00;;;;;;5045695;28;20072;-77
2021/05/09 12:27:06;;;;;;;2.40;0.45;;;27.90;99.10;;;;;;5045883;28;20021;-72
2021/05/09 12:29:48;;;;;;;0.85;0.45;;;28.10;94.10;;;;;;5045523;28;20060;-77
2021/05/09 12:32:17;;;;;;;0.47;0.32;;;28.30;95.30;;;;;;5044336;28;20056;-76
2021/05/09 12:35:09;;;;;;;1.23;0.60;;;28.50;92.50;;;;;;5044167;28;20039;-77
2021/05/09 12:37:39;;;;;;;1.73;0.65;;;28.40;90.00;;;;;;5044253;28;20033;-73
2021/05/09 12:40:32;;;;;;;0.47;0.47;;;28.40;92.70;;;;;;5045374;28;20088;-70
2021/05/09 12:43:04;;;;;;;1.40;0.70;;;28.60;91.70;;;;;;5044750;28;20061;-71
2021/05/09 12:45:36;;;;;;;1.67;0.80;;;28.90;89.70;;;;;;5045236;28;20041;-77
2021/05/09 12:48:04;;;;;;;1.50;0.45;;;29.10;91.50;;;;;;5043846;28;20394;-75
2021/05/09 12:50:48;;;;;;;1.05;0.45;;;29.20;91.30;;;;;;5043706;28;20029;-72
2021/05/09 12:53:42;;;;;;;4.47;0.95;;;29.10;86.00;;;;;;5044064;28;20026;-72
2021/05/09 12:56:13;;;;;;;;;;;29.20;82.10;;;;;;5045522;28;20415;-74